Time;durP1;ratioP1;P1;durP2;ratioP2;P2;SDS_P1;SDS_P2;PMS_P1;PMS_P2;Temp;Humidity;BMP_temperature;BMP_pressure;BME280_temperature;BME280_humidity;BME280_pressure;Samples;Min_cycle;Max_cycle;Signal;HPM_P1;HPM_P2
2022/05/17 00:01:43;;;;;;;2.97;1.23;;;17.00;99.90;;;;;;6209791;23;20165;-93
2022/05/17 00:04:14;;;;;;;2.67;1.10;;;17.40;99.90;;;;;;6199591;23;20337;-93
2022/05/17 00:06:45;;;;;;;7.27;1.10;;;17.30;99.90;;;;;;6198683;23;20682;-93
2022/05/17 00:09:16;;;;;;;3.73;1.20;;;17.30;99.90;;;;;;6196802;23;20165;-93
2022/05/17 00:11:48;;;;;;;3.77;1.20;;;17.30;99.90;;;;;;6169208;23;20235;-93
2022/05/17 00:14:20;;;;;;;3.47;1.30;;;17.40;99.90;;;;;;6192650;23;20216;-93
2022/05/17 00:16:54;;;;;;;3.07;1.30;;;16.70;99.90;;;;;;6165709;23;20224;-93
2022/05/17 00:19:26;;;;;;;4.47;1.27;;;16.80;99.90;;;;;;6198126;23;20173;-93
2022/05/17 00:22:00;;;;;;;3.20;1.20;;;17.00;99.90;;;;;;6194458;23;20192;-93
2022/05/17 00:24:31;;;;;;;3.53;1.23;;;17.20;99.90;;;;;;6192413;23;20177;-93
2022/05/17 00:27:04;;;;;;;2.57;1.33;;;17.40;99.90;;;;;;6191450;23;20612;-93
2022/05/17 00:29:35;;;;;;;2.90;1.40;;;17.20;99.90;;;;;;6191248;23;20177;-93
2022/05/17 00:32:09;;;;;;;6.20;1.27;;;17.10;99.90;;;;;;6191565;23;20169;-93
2022/05/17 00:34:41;;;;;;;3.43;1.57;;;17.10;99.90;;;;;;6191903;23;20183;-92
2022/05/17 00:37:13;;;;;;;3.13;1.27;;;17.40;99.90;;;;;;6171121;23;20275;-92
2022/05/17 00:39:44;;;;;;;4.87;1.40;;;17.30;99.90;;;;;;6194721;23;20185;-92
2022/05/17 00:42:17;;;;;;;4.27;1.20;;;17.10;99.90;;;;;;6192353;23;20173;-93
2022/05/17 00:44:51;;;;;;;3.47;1.20;;;17.20;99.90;;;;;;6192599;23;20218;-92
2022/05/17 00:47:30;;;;;;;4.50;1.20;;;17.40;99.90;;;;;;6201884;23;20176;-94
2022/05/17 00:50:06;;;;;;;2.23;1.00;;;17.60;99.90;;;;;;6209102;23;20540;-92
2022/05/17 00:52:43;;;;;;;4.97;1.30;;;17.30;99.90;;;;;;6210530;23;20216;-93
2022/05/17 00:55:19;;;;;;;4.43;1.33;;;17.10;99.90;;;;;;6197822;23;20180;-93
2022/05/17 00:57:57;;;;;;;4.03;1.03;;;17.10;99.90;;;;;;6193116;23;20204;-93
2022/05/17 01:00:37;;;;;;;2.37;0.97;;;17.70;99.90;;;;;;6201778;23;20559;-92
2022/05/17 01:03:20;;;;;;;4.00;1.00;;;17.60;99.90;;;;;;6150503;23;20482;-92
2022/05/17 01:08:58;;;;;;;5.13;0.93;;;17.00;99.90;;;;;;6196469;23;20181;-92
2022/05/17 01:11:36;;;;;;;2.87;1.20;;;17.30;99.90;;;;;;6192602;23;20227;-93
2022/05/17 01:16:57;;;;;;;2.07;1.13;;;17.50;99.90;;;;;;6196798;23;20217;-93
2022/05/17 01:19:34;;;;;;;2.97;1.20;;;17.90;99.90;;;;;;6167047;23;20181;-93
2022/05/17 01:22:08;;;;;;;2.17;1.07;;;18.40;99.90;;;;;;6193470;23;20176;-93
2022/05/17 01:24:39;;;;;;;2.53;1.17;;;18.90;99.90;;;;;;6193236;23;20470;-93
2022/05/17 01:27:15;;;;;;;4.10;1.20;;;19.00;99.90;;;;;;6191178;23;20181;-92
2022/05/17 01:29:49;;;;;;;3.27;1.50;;;18.20;99.90;;;;;;6189363;23;20176;-92
2022/05/17 01:32:21;;;;;;;2.97;1.20;;;17.30;99.90;;;;;;6192398;23;20518;-92
2022/05/17 01:34:52;;;;;;;2.37;0.90;;;17.00;99.90;;;;;;6165927;23;20189;-93
2022/05/17 01:37:26;;;;;;;3.20;1.20;;;16.90;99.90;;;;;;6191767;23;20231;-93
2022/05/17 01:39:57;;;;;;;2.93;1.10;;;16.70;99.90;;;;;;6192493;23;20173;-93
2022/05/17 01:42:29;;;;;;;3.77;1.27;;;16.20;99.90;;;;;;6192695;23;20177;-92
2022/05/17 01:45:01;;;;;;;4.33;1.40;;;15.80;99.90;;;;;;6199370;23;20177;-92
2022/05/17 01:47:32;;;;;;;3.87;1.33;;;15.70;99.90;;;;;;6205655;23;20169;-93
2022/05/17 01:50:04;;;;;;;4.83;1.30;;;15.50;99.90;;;;;;6204660;23;20181;-92
2022/05/17 01:52:39;;;;;;;5.37;1.40;;;15.50;99.90;;;;;;6201313;23;20234;-93
2022/05/17 01:55:12;;;;;;;7.10;1.50;;;15.40;99.90;;;;;;6207049;23;20188;-92
2022/05/17 01:57:45;;;;;;;4.70;1.60;;;15.30;99.90;;;;;;6202355;23;20196;-91
2022/05/17 02:00:19;;;;;;;4.17;1.30;;;15.00;99.90;;;;;;6207119;23;20170;-91
2022/05/17 02:02:50;;;;;;;4.17;1.57;;;14.90;99.90;;;;;;6197454;23;20170;-92
2022/05/17 02:05:23;;;;;;;5.13;1.93;;;14.80;99.90;;;;;;6198774;23;20169;-92
2022/05/17 02:07:56;;;;;;;4.50;1.60;;;14.60;99.90;;;;;;6192823;23;20181;-92
2022/05/17 02:10:29;;;;;;;5.50;1.60;;;14.50;99.90;;;;;;6193846;23;20176;-92
2022/05/17 02:13:03;;;;;;;4.03;1.43;;;14.30;99.90;;;;;;6179863;23;20168;-91
2022/05/17 02:15:35;;;;;;;5.43;1.93;;;14.20;99.90;;;;;;6177051;23;20177;-91
2022/05/17 02:18:09;;;;;;;5.67;1.67;;;14.20;99.90;;;;;;6205418;23;20200;-91
2022/05/17 02:20:42;;;;;;;4.00;1.63;;;14.00;99.90;;;;;;6204106;23;20195;-91
2022/05/17 02:23:17;;;;;;;5.30;1.70;;;14.00;99.90;;;;;;6206529;23;20180;-92
2022/05/17 02:25:50;;;;;;;7.50;1.60;;;13.90;99.90;;;;;;6205785;23;20224;-92
2022/05/17 02:28:22;;;;;;;3.63;1.67;;;13.90;99.90;;;;;;6207167;23;20180;-92
2022/05/17 02:30:54;;;;;;;5.17;1.60;;;13.80;99.90;;;;;;6203302;23;20240;-92
2022/05/17 02:33:25;;;;;;;2.87;1.60;;;13.80;99.90;;;;;;6189035;23;20184;-92
2022/05/17 02:38:36;;;;;;;6.73;1.80;;;13.70;99.90;;;;;;6198588;23;20268;-93
2022/05/17 02:43:43;;;;;;;7.03;1.40;;;13.50;99.90;;;;;;6187306;23;20208;-90
2022/05/17 02:46:16;;;;;;;4.80;1.50;;;13.50;99.90;;;;;;6214153;23;20200;-91
2022/05/17 02:48:48;;;;;;;5.67;1.70;;;13.50;99.90;;;;;;6214315;23;20209;-91
2022/05/17 02:51:22;;;;;;;6.27;1.60;;;13.50;99.90;;;;;;6213890;23;20161;-90
2022/05/17 02:53:56;;;;;;;4.00;1.30;;;13.40;99.90;;;;;;6212087;23;20188;-89
2022/05/17 02:56:28;;;;;;;5.00;1.47;;;13.30;99.90;;;;;;6211916;23;20177;-90
2022/05/17 02:59:00;;;;;;;5.07;1.60;;;13.30;99.90;;;;;;6211654;23;20223;-90
2022/05/17 03:01:32;;;;;;;3.73;1.40;;;13.20;99.90;;;;;;6174440;23;20201;-91
2022/05/17 03:04:06;;;;;;;3.57;1.40;;;13.10;99.90;;;;;;6214057;23;20196;-89
2022/05/17 03:06:38;;;;;;;6.47;1.90;;;13.00;99.90;;;;;;6212542;23;20224;-90
2022/05/17 03:09:13;;;;;;;3.93;1.43;;;13.00;99.90;;;;;;6209302;23;20269;-91
2022/05/17 03:11:44;;;;;;;4.80;1.63;;;12.90;99.90;;;;;;6211064;23;20181;-91
2022/05/17 03:14:18;;;;;;;4.60;1.50;;;12.70;99.90;;;;;;6212328;23;20165;-91
2022/05/17 03:16:50;;;;;;;6.77;1.50;;;12.60;99.90;;;;;;6188509;23;20208;-92
2022/05/17 03:19:21;;;;;;;4.80;1.57;;;12.60;99.90;;;;;;6185647;23;20209;-93
2022/05/17 03:21:52;;;;;;;3.80;1.70;;;12.60;99.90;;;;;;6210830;23;20188;-91
2022/05/17 03:24:48;;;;;;;5.43;1.87;;;12.60;99.90;;;;;;6210871;23;20165;-90
2022/05/17 03:27:41;;;;;;;6.73;2.00;;;12.40;99.90;;;;;;6211149;23;20189;-92
2022/05/17 03:30:17;;;;;;;10.13;2.50;;;12.30;99.90;;;;;;6212084;23;20209;-89
2022/05/17 03:32:53;;;;;;;5.03;1.90;;;12.20;99.90;;;;;;6211891;23;20174;-90
2022/05/17 03:35:26;;;;;;;5.37;1.40;;;12.20;99.90;;;;;;6203119;23;20185;-91
2022/05/17 03:37:59;;;;;;;3.57;1.53;;;12.00;99.90;;;;;;6160798;23;20213;-92
2022/05/17 03:46:05;;;;;;;3.30;1.53;;;11.70;99.90;;;;;;6173301;23;20194;-90
2022/05/17 03:48:39;;;;;;;5.40;1.73;;;11.70;99.90;;;;;;6154652;23;20181;-91
2022/05/17 03:51:15;;;;;;;5.50;1.70;;;11.50;99.90;;;;;;6177660;23;20228;-89
2022/05/17 03:53:51;;;;;;;5.57;1.63;;;11.40;99.90;;;;;;6176202;23;20178;-90
2022/05/17 03:56:32;;;;;;;4.60;1.67;;;11.30;99.90;;;;;;6178735;23;20173;-89
2022/05/17 03:59:05;;;;;;;6.00;1.70;;;11.20;99.90;;;;;;6177202;23;20252;-90
2022/05/17 04:01:46;;;;;;;7.23;1.83;;;11.10;99.90;;;;;;6152792;23;20166;-91
2022/05/17 04:04:19;;;;;;;3.60;1.57;;;11.00;99.90;;;;;;6170572;23;20257;-91
2022/05/17 04:06:54;;;;;;;6.20;1.90;;;11.00;99.90;;;;;;6166735;23;20186;-90
2022/05/17 04:09:27;;;;;;;4.50;1.80;;;10.90;99.90;;;;;;6143199;23;20178;-91
2022/05/17 04:12:08;;;;;;;7.33;1.60;;;10.90;99.90;;;;;;6144060;23;20181;-88
2022/05/17 04:14:41;;;;;;;6.40;1.70;;;10.80;99.90;;;;;;6170563;23;20239;-91
2022/05/17 04:17:13;;;;;;;5.53;1.73;;;10.90;99.90;;;;;;6171583;23;20221;-91
2022/05/17 04:19:45;;;;;;;8.93;2.13;;;10.90;99.90;;;;;;6172934;23;20220;-92
2022/05/17 04:22:17;;;;;;;7.90;1.77;;;10.80;99.90;;;;;;6138866;23;20613;-91
2022/05/17 04:24:49;;;;;;;5.87;1.93;;;10.70;99.90;;;;;;6174222;23;20173;-91
2022/05/17 04:27:28;;;;;;;8.50;2.43;;;10.60;99.90;;;;;;6173846;23;20177;-91
2022/05/17 04:30:11;;;;;;;7.03;1.77;;;10.60;99.90;;;;;;6168066;23;20158;-92
2022/05/17 04:32:42;;;;;;;7.37;2.30;;;10.60;99.90;;;;;;6170453;23;20177;-91
2022/05/17 04:35:17;;;;;;;6.37;2.53;;;10.50;99.90;;;;;;6166816;23;20174;-91
2022/05/17 04:37:52;;;;;;;8.03;2.07;;;10.60;99.90;;;;;;6180626;23;20181;-90
2022/05/17 04:40:24;;;;;;;5.33;2.00;;;10.50;99.90;;;;;;6168803;23;20213;-91
2022/05/17 04:42:57;;;;;;;3.63;1.53;;;10.60;99.90;;;;;;6193240;23;20173;-92
2022/05/17 04:45:30;;;;;;;8.03;1.97;;;10.50;99.90;;;;;;6193296;23;20180;-92
2022/05/17 04:48:01;;;;;;;9.73;3.20;;;10.50;99.90;;;;;;6193554;23;20196;-93
2022/05/17 04:50:32;;;;;;;6.73;2.40;;;10.60;99.90;;;;;;6191122;23;20169;-90
2022/05/17 04:53:06;;;;;;;6.60;2.20;;;10.60;99.90;;;;;;6192174;23;20184;-91
2022/05/17 04:55:37;;;;;;;4.87;1.80;;;10.60;99.90;;;;;;6191580;23;20180;-93
2022/05/17 04:58:10;;;;;;;6.03;1.73;;;10.50;99.90;;;;;;6197077;23;20181;-92
2022/05/17 05:00:42;;;;;;;7.23;2.10;;;10.50;99.90;;;;;;6167053;23;20200;-90
2022/05/17 05:03:14;;;;;;;8.40;2.00;;;10.50;99.90;;;;;;6191510;23;20624;-91
2022/05/17 05:05:53;;;;;;;7.53;2.20;;;10.50;99.90;;;;;;6191613;23;20185;-91
2022/05/17 05:08:24;;;;;;;9.73;3.40;;;10.40;99.90;;;;;;6190027;23;20185;-91
2022/05/17 05:10:58;;;;;;;5.77;2.33;;;10.40;99.90;;;;;;6190826;23;20208;-91
2022/05/17 05:13:31;;;;;;;5.70;2.07;;;10.40;99.90;;;;;;6192343;23;20177;-91
2022/05/17 05:16:02;;;;;;;6.20;2.50;;;10.40;99.90;;;;;;6166796;23;20205;-91
2022/05/17 05:18:41;;;;;;;7.23;2.47;;;10.40;99.90;;;;;;6201871;23;20208;-91
2022/05/17 05:21:17;;;;;;;4.90;2.40;;;10.30;99.90;;;;;;6174813;23;20216;-91
2022/05/17 05:23:48;;;;;;;7.33;2.60;;;10.30;99.90;;;;;;6194511;23;20178;-92
2022/05/17 05:26:21;;;;;;;12.10;3.77;;;10.30;99.90;;;;;;6187600;23;20161;-91
2022/05/17 05:28:57;;;;;;;8.47;2.40;;;10.30;99.90;;;;;;6209911;23;20181;-91
2022/05/17 05:31:29;;;;;;;6.50;2.00;;;10.30;99.90;;;;;;6174646;23;20196;-91
2022/05/17 05:34:02;;;;;;;7.97;1.90;;;10.20;99.90;;;;;;6198140;23;20224;-91
2022/05/17 05:36:34;;;;;;;9.90;2.00;;;10.20;99.90;;;;;;6193126;23;20208;-90
2022/05/17 05:39:06;;;;;;;7.90;2.43;;;10.20;99.90;;;;;;6191422;23;20176;-91
2022/05/17 05:41:37;;;;;;;5.73;1.90;;;10.20;99.90;;;;;;6191417;23;20208;-91
2022/05/17 05:44:10;;;;;;;4.73;1.93;;;10.20;99.90;;;;;;6192484;23;20180;-91
2022/05/17 05:46:42;;;;;;;4.10;1.60;;;10.20;99.90;;;;;;6197280;23;20181;-93
2022/05/17 05:49:13;;;;;;;5.73;2.00;;;10.20;99.90;;;;;;6193872;23;20496;-92
2022/05/17 05:51:46;;;;;;;5.63;2.10;;;10.20;99.90;;;;;;6193465;23;20191;-92
2022/05/17 05:54:17;;;;;;;6.60;1.83;;;10.30;99.90;;;;;;6192159;23;20165;-91
2022/05/17 05:56:49;;;;;;;6.47;1.93;;;10.20;99.90;;;;;;6192075;23;20169;-91
2022/05/17 05:59:22;;;;;;;7.20;2.20;;;10.20;99.90;;;;;;6191924;23;20177;-91
2022/05/17 06:01:53;;;;;;;7.13;2.03;;;10.20;99.90;;;;;;6195316;23;20583;-91
2022/05/17 06:04:27;;;;;;;4.73;2.17;;;10.20;99.90;;;;;;6191703;23;20248;-92
2022/05/17 06:07:09;;;;;;;6.23;1.70;;;10.20;99.90;;;;;;6193060;23;20168;-92
2022/05/17 06:09:45;;;;;;;4.10;1.70;;;10.20;99.90;;;;;;6187038;23;20594;-89
2022/05/17 06:12:20;;;;;;;4.20;1.77;;;10.20;99.90;;;;;;6166168;23;20176;-92
2022/05/17 06:14:54;;;;;;;5.87;2.00;;;10.20;99.90;;;;;;6191268;23;20168;-92
2022/05/17 06:17:27;;;;;;;3.77;2.00;;;10.10;99.90;;;;;;6190301;23;20177;-94
2022/05/17 06:20:01;;;;;;;6.37;2.00;;;10.10;99.90;;;;;;6190649;23;20196;-92
2022/05/17 06:22:33;;;;;;;5.50;1.90;;;10.10;99.90;;;;;;6190866;23;20314;-91
2022/05/17 06:25:06;;;;;;;4.83;1.93;;;10.00;99.90;;;;;;6191158;23;20228;-91
2022/05/17 06:27:37;;;;;;;6.23;1.80;;;9.90;99.90;;;;;;6165216;23;20176;-92
2022/05/17 06:30:15;;;;;;;4.73;1.90;;;9.80;99.90;;;;;;6189935;23;20235;-92
2022/05/17 06:32:47;;;;;;;5.30;1.93;;;9.80;99.90;;;;;;6194133;23;20279;-91
2022/05/17 06:35:19;;;;;;;6.77;1.73;;;9.70;99.90;;;;;;6193174;23;20177;-92
2022/05/17 06:37:52;;;;;;;5.90;1.60;;;9.70;99.90;;;;;;6190419;23;20177;-92
2022/05/17 06:40:24;;;;;;;4.37;1.90;;;9.60;99.90;;;;;;6166943;23;20204;-92
2022/05/17 06:42:56;;;;;;;7.40;2.07;;;9.60;99.90;;;;;;6191463;23;20258;-91
2022/05/17 06:45:30;;;;;;;6.37;2.20;;;9.60;99.90;;;;;;6192033;23;20220;-92
2022/05/17 06:48:02;;;;;;;5.50;1.70;;;9.60;99.90;;;;;;6192425;23;20177;-92
2022/05/17 06:50:34;;;;;;;8.70;1.90;;;9.60;99.90;;;;;;6199296;23;20608;-92
2022/05/17 06:53:08;;;;;;;5.83;2.03;;;9.50;99.90;;;;;;6198546;23;20177;-92
2022/05/17 06:55:41;;;;;;;6.20;1.60;;;9.50;99.90;;;;;;6203719;23;20279;-92
2022/05/17 06:58:14;;;;;;;7.50;2.17;;;9.40;99.90;;;;;;6202289;23;20177;-92
2022/05/17 07:00:49;;;;;;;7.90;2.43;;;9.40;99.90;;;;;;6203055;23;20189;-92
2022/05/17 07:03:21;;;;;;;3.97;1.83;;;9.40;99.90;;;;;;6176708;23;20247;-92
2022/05/17 07:05:54;;;;;;;7.20;2.17;;;9.40;99.90;;;;;;6197679;23;20173;-92
2022/05/17 07:08:25;;;;;;;6.53;1.80;;;9.50;99.90;;;;;;6202346;23;20335;-91
2022/05/17 07:13:46;;;;;;;3.90;1.90;;;9.40;99.90;;;;;;6196747;23;20177;-92
2022/05/17 07:16:20;;;;;;;7.83;1.77;;;9.40;99.90;;;;;;6199291;23;20239;-91
2022/05/17 07:18:51;;;;;;;7.33;2.33;;;9.40;99.90;;;;;;6200165;23;20165;-91
2022/05/17 07:21:43;;;;;;;5.03;1.70;;;9.30;99.90;;;;;;6198426;23;20232;-91
2022/05/17 07:24:14;;;;;;;3.97;1.50;;;9.30;99.90;;;;;;6193866;23;20166;-92
2022/05/17 07:26:46;;;;;;;4.90;2.00;;;9.30;99.90;;;;;;6192540;23;20177;-91
2022/05/17 07:29:38;;;;;;;5.07;2.00;;;9.30;99.90;;;;;;6170754;23;20648;-91
2022/05/17 07:32:12;;;;;;;8.60;2.17;;;9.30;99.90;;;;;;6193620;23;20488;-92
2022/05/17 07:34:44;;;;;;;7.87;2.00;;;9.20;99.90;;;;;;6193445;23;20227;-92
2022/05/17 07:37:15;;;;;;;4.80;2.10;;;9.10;99.90;;;;;;6199144;23;20217;-92
2022/05/17 07:39:46;;;;;;;1.90;1.60;;;9.10;99.90;;;;;;6207917;23;20165;-91
2022/05/17 07:42:18;;;;;;;5.17;1.97;;;9.10;99.90;;;;;;6206993;23;20738;-92
2022/05/17 07:44:49;;;;;;;4.43;2.20;;;9.10;99.90;;;;;;6198414;23;20547;-91
2022/05/17 07:47:26;;;;;;;5.57;2.20;;;9.20;99.90;;;;;;6170347;23;20198;-91
2022/05/17 07:49:57;;;;;;;6.60;1.80;;;9.20;99.90;;;;;;6194342;23;20177;-90
2022/05/17 07:52:29;;;;;;;6.80;1.60;;;9.10;99.90;;;;;;6194761;23;20232;-91
2022/05/17 07:55:04;;;;;;;3.93;1.60;;;9.10;99.90;;;;;;6194071;23;20200;-91
2022/05/17 07:57:35;;;;;;;7.00;1.97;;;9.00;99.90;;;;;;6195623;23;20231;-91
2022/05/17 08:00:08;;;;;;;6.60;2.10;;;9.00;99.90;;;;;;6192268;23;20635;-90
2022/05/17 08:02:42;;;;;;;4.57;1.93;;;8.90;99.90;;;;;;6165944;23;20208;-91
2022/05/17 08:05:13;;;;;;;7.00;2.00;;;8.90;99.90;;;;;;6193110;23;20193;-91
2022/05/17 08:07:46;;;;;;;3.57;1.50;;;8.80;99.90;;;;;;6193001;23;20231;-91
2022/05/17 08:10:17;;;;;;;3.93;2.17;;;8.70;99.90;;;;;;6201079;23;20200;-89
2022/05/17 08:12:49;;;;;;;5.97;2.10;;;8.60;99.90;;;;;;6206121;23;20228;-91
2022/05/17 08:15:21;;;;;;;7.73;2.10;;;8.50;99.90;;;;;;6194795;23;20232;-91
2022/05/17 08:17:58;;;;;;;4.83;1.70;;;8.50;99.90;;;;;;6192214;23;20180;-90
2022/05/17 08:20:31;;;;;;;7.47;2.20;;;8.50;99.90;;;;;;6193861;23;20184;-91
2022/05/17 08:23:02;;;;;;;7.00;2.40;;;8.40;99.90;;;;;;6195208;23;20212;-91
2022/05/17 08:28:22;;;;;;;6.43;2.10;;;8.30;99.90;;;;;;6202172;23;20188;-90
2022/05/17 08:30:55;;;;;;;5.07;2.40;;;8.30;99.90;;;;;;6198102;23;20627;-90
2022/05/17 08:33:30;;;;;;;5.23;2.30;;;8.20;99.90;;;;;;6171717;23;20180;-91
2022/05/17 08:36:03;;;;;;;4.63;1.80;;;8.20;99.90;;;;;;6194480;23;20176;-91
2022/05/17 08:38:37;;;;;;;4.90;1.90;;;8.10;99.90;;;;;;6198707;23;20177;-90
2022/05/17 08:41:33;;;;;;;5.30;2.37;;;8.20;99.90;;;;;;6210975;23;20209;-91
2022/05/17 08:44:08;;;;;;;6.10;2.00;;;8.10;99.90;;;;;;6210659;23;20180;-91
2022/05/17 08:46:51;;;;;;;5.20;1.77;;;8.00;99.90;;;;;;6202399;23;20176;-90
2022/05/17 08:49:54;;;;;;;4.20;2.10;;;7.70;99.90;;;;;;6197231;23;20223;-90
2022/05/17 08:52:29;;;;;;;5.03;1.83;;;7.70;99.90;;;;;;6195210;23;20223;-91
2022/05/17 08:55:03;;;;;;;5.03;2.10;;;7.60;99.90;;;;;;6168056;23;20183;-91
2022/05/17 08:57:42;;;;;;;4.23;2.00;;;7.50;99.90;;;;;;6191413;23;20507;-91
2022/05/17 09:00:22;;;;;;;6.17;2.13;;;7.50;99.90;;;;;;6191484;23;20191;-91
2022/05/17 09:02:58;;;;;;;5.70;1.93;;;7.50;99.90;;;;;;6193737;23;20228;-90
2022/05/17 09:05:38;;;;;;;7.50;2.10;;;7.50;99.90;;;;;;6195698;23;20182;-90
2022/05/17 09:08:23;;;;;;;5.57;2.00;;;7.50;99.90;;;;;;6171345;23;20193;-90
2022/05/17 09:11:00;;;;;;;8.70;1.90;;;7.40;99.90;;;;;;6191931;23;20639;-91
2022/05/17 09:13:43;;;;;;;4.30;1.70;;;7.40;99.90;;;;;;6191004;23;20239;-91
2022/05/17 09:16:37;;;;;;;3.37;1.70;;;7.40;99.90;;;;;;6191126;23;20561;-91
2022/05/17 09:19:09;;;;;;;5.70;1.83;;;7.50;99.90;;;;;;6194756;23;20181;-92
2022/05/17 09:21:48;;;;;;;4.67;2.20;;;7.50;99.90;;;;;;6191410;23;20247;-91
2022/05/17 09:24:22;;;;;;;5.40;2.43;;;7.60;99.90;;;;;;6195746;23;20165;-90
2022/05/17 09:26:55;;;;;;;6.23;1.93;;;7.50;99.90;;;;;;6190822;23;20177;-91
2022/05/17 09:29:32;;;;;;;6.07;1.90;;;7.30;99.90;;;;;;6190482;23;20191;-91
2022/05/17 09:32:07;;;;;;;5.90;2.13;;;7.30;99.90;;;;;;6165008;23;20176;-90
2022/05/17 09:34:40;;;;;;;4.90;1.80;;;7.30;99.90;;;;;;6191881;23;20176;-90
2022/05/17 09:37:19;;;;;;;7.87;2.47;;;7.30;99.90;;;;;;6192517;23;20187;-90
2022/05/17 09:39:52;;;;;;;5.23;1.90;;;7.30;99.90;;;;;;6190571;23;20177;-91
2022/05/17 09:42:34;;;;;;;3.83;1.77;;;7.30;99.90;;;;;;6191381;23;20227;-90
2022/05/17 09:45:12;;;;;;;7.03;2.27;;;7.20;99.90;;;;;;6197828;23;20176;-91
2022/05/17 09:47:55;;;;;;;5.73;2.03;;;7.30;99.90;;;;;;6193256;23;20219;-90
2022/05/17 09:53:21;;;;;;;7.60;2.10;;;7.40;99.90;;;;;;6211264;23;20180;-90
2022/05/17 09:56:06;;;;;;;5.03;2.20;;;7.50;99.90;;;;;;6200112;23;20173;-91
2022/05/17 09:58:41;;;;;;;6.40;2.10;;;7.40;99.90;;;;;;6192459;23;20193;-89
2022/05/17 10:01:16;;;;;;;3.23;1.67;;;7.40;99.90;;;;;;6190892;23;20682;-91
2022/05/17 10:04:02;;;;;;;8.07;2.33;;;7.30;99.90;;;;;;6192938;23;20706;-91
2022/05/17 10:06:36;;;;;;;7.70;2.70;;;7.30;99.90;;;;;;6191762;23;20169;-91
2022/05/17 10:09:12;;;;;;;3.37;2.30;;;7.30;99.90;;;;;;6190290;23;20176;-89
2022/05/17 10:11:46;;;;;;;7.40;2.73;;;7.30;99.90;;;;;;6190725;23;20188;-90
2022/05/17 10:14:27;;;;;;;6.60;2.30;;;7.30;99.90;;;;;;6189670;23;20623;-90
2022/05/17 10:17:02;;;;;;;7.67;2.53;;;7.40;99.90;;;;;;6191615;23;20183;-91
2022/05/17 10:19:46;;;;;;;7.97;2.50;;;7.40;99.90;;;;;;6189836;23;20194;-90
2022/05/17 10:22:28;;;;;;;6.47;2.73;;;7.30;99.90;;;;;;6190544;23;20193;-91
2022/05/17 10:25:06;;;;;;;5.63;2.60;;;7.40;99.90;;;;;;6190346;23;20180;-90
2022/05/17 10:27:39;;;;;;;11.00;2.67;;;7.50;99.90;;;;;;6189866;23;20165;-90
2022/05/17 10:30:14;;;;;;;9.87;3.40;;;7.50;99.90;;;;;;6165830;23;20192;-90
2022/05/17 10:32:54;;;;;;;7.90;2.90;;;7.50;99.90;;;;;;6190333;23;20488;-90
2022/05/17 10:35:35;;;;;;;11.80;3.87;;;7.40;99.90;;;;;;6190525;23;20177;-90
2022/05/17 10:38:12;;;;;;;6.30;2.43;;;7.40;99.90;;;;;;6189238;23;20184;-90
2022/05/17 10:40:56;;;;;;;9.03;2.80;;;7.40;99.90;;;;;;6194306;23;20175;-92
2022/05/17 10:43:30;;;;;;;10.27;2.80;;;7.30;99.90;;;;;;6190682;23;20196;-89
2022/05/17 10:46:13;;;;;;;6.30;3.30;;;7.30;99.90;;;;;;6192447;23;20180;-90
2022/05/17 10:48:55;;;;;;;13.47;3.40;;;7.30;99.90;;;;;;6164496;23;20596;-90
2022/05/17 10:51:31;;;;;;;8.23;2.90;;;7.30;99.90;;;;;;6191047;23;20521;-90
2022/05/17 10:54:10;;;;;;;11.07;3.17;;;7.30;99.90;;;;;;6192745;23;20172;-89
2022/05/17 10:56:52;;;;;;;4.23;2.93;;;7.20;99.90;;;;;;6169531;23;20172;-90
2022/05/17 10:59:34;;;;;;;5.43;2.57;;;7.30;99.90;;;;;;6195174;23;20177;-90
2022/05/17 11:02:24;;;;;;;7.83;2.50;;;7.30;99.90;;;;;;6168020;23;20493;-91
2022/05/17 11:05:21;;;;;;;5.83;2.80;;;7.30;99.90;;;;;;6192579;23;20173;-90
2022/05/17 11:08:01;;;;;;;6.40;2.53;;;7.30;99.90;;;;;;6194152;23;20188;-91
2022/05/17 11:10:42;;;;;;;6.07;3.37;;;7.40;99.90;;;;;;6193548;23;20254;-91
2022/05/17 11:13:27;;;;;;;9.40;3.60;;;7.50;99.90;;;;;;6194320;23;20181;-91
2022/05/17 11:16:13;;;;;;;6.27;2.50;;;7.50;99.90;;;;;;6170098;23;20271;-91
2022/05/17 11:18:52;;;;;;;9.33;3.77;;;7.60;99.90;;;;;;6197426;23;20177;-89
2022/05/17 11:21:32;;;;;;;8.63;2.67;;;7.70;99.90;;;;;;6195172;23;20175;-92
2022/05/17 11:24:14;;;;;;;5.17;2.40;;;7.80;99.90;;;;;;6197722;23;20215;-92
2022/05/17 11:27:11;;;;;;;9.47;2.90;;;7.80;99.90;;;;;;6194418;23;20652;-91
2022/05/17 11:30:07;;;;;;;5.70;2.90;;;7.90;99.90;;;;;;6192469;23;20185;-92
2022/05/17 11:32:42;;;;;;;7.40;2.63;;;8.00;99.90;;;;;;6167377;23;20203;-92
2022/05/17 11:35:41;;;;;;;7.57;3.10;;;8.10;99.90;;;;;;6191952;23;20243;-92
2022/05/17 11:38:20;;;;;;;8.77;3.13;;;8.10;99.90;;;;;;6181689;23;20185;-92
2022/05/17 11:41:02;;;;;;;9.00;2.70;;;8.10;99.90;;;;;;6191290;23;20184;-92
2022/05/17 11:43:52;;;;;;;8.37;3.63;;;8.10;99.90;;;;;;6167369;23;20251;-89
2022/05/17 11:46:58;;;;;;;7.67;3.23;;;8.20;99.90;;;;;;6191885;23;20251;-89
2022/05/17 11:49:47;;;;;;;9.47;3.20;;;8.20;99.90;;;;;;6193890;23;20211;-92
2022/05/17 11:52:38;;;;;;;7.97;3.20;;;8.20;99.90;;;;;;6198852;23;20164;-90
2022/05/17 11:55:13;;;;;;;9.53;3.03;;;8.30;99.90;;;;;;6169734;23;20180;-90
2022/05/17 11:58:15;;;;;;;7.30;2.77;;;8.20;99.90;;;;;;6194546;23;20153;-90
2022/05/17 12:00:49;;;;;;;7.67;2.77;;;8.20;99.90;;;;;;6201752;23;20180;-90
2022/05/17 12:03:53;;;;;;;6.83;2.80;;;8.20;99.90;;;;;;6204505;23;20201;-90
2022/05/17 12:06:44;;;;;;;7.80;2.90;;;8.10;99.90;;;;;;6193762;23;20184;-91
2022/05/17 12:09:31;;;;;;;6.03;2.80;;;8.10;99.90;;;;;;6191551;23;20208;-90
2022/05/17 12:12:48;;;;;;;8.40;2.67;;;8.10;99.90;;;;;;6191705;23;20173;-91
2022/05/17 12:15:56;;;;;;;6.67;2.57;;;8.00;99.90;;;;;;6190767;23;20239;-91
2022/05/17 12:18:43;;;;;;;7.27;3.03;;;7.80;99.90;;;;;;6162459;23;20180;-91
2022/05/17 12:21:49;;;;;;;11.17;2.83;;;7.80;99.90;;;;;;6193560;23;20197;-90
2022/05/17 12:24:35;;;;;;;8.40;3.10;;;7.70;99.90;;;;;;6188810;23;20204;-90
2022/05/17 12:27:26;;;;;;;8.50;3.40;;;7.70;99.90;;;;;;6191905;23;20627;-90
2022/05/17 12:33:03;;;;;;;10.17;2.63;;;7.60;99.90;;;;;;6169662;23;20177;-90
2022/05/17 12:35:35;;;;;;;6.90;3.40;;;7.60;99.90;;;;;;6191999;23;20187;-90
2022/05/17 12:43:02;;;;;;;6.93;2.67;;;7.60;99.90;;;;;;6189932;23;20184;-91
2022/05/17 12:43:53;;;;;;;5.70;2.80;;;7.60;99.90;;;;;;6190369;23;20231;-91
2022/05/17 12:46:30;;;;;;;10.37;2.73;;;7.60;99.90;;;;;;6197433;23;20177;-89
2022/05/17 12:49:14;;;;;;;5.63;2.83;;;7.50;99.90;;;;;;6193726;23;20268;-90
2022/05/17 12:51:47;;;;;;;6.97;2.73;;;7.50;99.90;;;;;;6193408;23;20176;-90
2022/05/17 12:54:24;;;;;;;9.67;3.00;;;7.50;99.90;;;;;;6190243;23;20267;-89
2022/05/17 12:57:25;;;;;;;6.17;2.50;;;7.50;99.90;;;;;;6191450;23;20175;-90
2022/05/17 13:00:10;;;;;;;9.37;3.10;;;7.40;99.90;;;;;;6190648;23;20288;-89
2022/05/17 13:02:47;;;;;;;8.07;2.93;;;7.30;99.90;;;;;;6192514;23;20204;-90
2022/05/17 13:05:36;;;;;;;9.23;3.10;;;7.30;99.90;;;;;;6192185;23;20237;-90
2022/05/17 13:08:10;;;;;;;7.43;3.17;;;7.40;99.90;;;;;;6189956;23;20187;-90
2022/05/17 13:10:44;;;;;;;9.30;2.83;;;7.50;99.90;;;;;;6191406;23;20662;-90
2022/05/17 13:13:20;;;;;;;7.97;3.23;;;7.70;99.90;;;;;;6190617;23;20180;-90
2022/05/17 13:15:56;;;;;;;8.43;2.93;;;7.80;99.90;;;;;;6196324;23;20179;-90
2022/05/17 13:18:32;;;;;;;7.20;2.57;;;7.90;99.90;;;;;;6197440;23;20176;-90
2022/05/17 13:21:04;;;;;;;5.07;3.37;;;8.00;99.90;;;;;;6192675;23;20184;-90
2022/05/17 13:23:36;;;;;;;5.63;2.80;;;8.00;99.90;;;;;;6190551;23;20196;-90
2022/05/17 13:26:10;;;;;;;6.23;2.43;;;8.20;99.90;;;;;;6193812;23;20177;-90
2022/05/17 13:28:42;;;;;;;5.67;2.83;;;8.10;99.90;;;;;;6189784;23;20190;-91
2022/05/17 13:31:22;;;;;;;8.07;2.57;;;8.20;99.90;;;;;;6191913;23;20718;-90
2022/05/17 13:34:00;;;;;;;7.30;2.57;;;8.20;99.90;;;;;;6190798;23;20289;-91
2022/05/17 13:36:35;;;;;;;9.60;3.00;;;8.30;99.90;;;;;;6191311;23;20172;-90
2022/05/17 13:39:18;;;;;;;12.53;2.77;;;8.30;99.90;;;;;;6191181;23;20176;-90
2022/05/17 13:41:50;;;;;;;11.30;3.63;;;8.40;99.90;;;;;;6194195;23;20188;-90
2022/05/17 13:44:41;;;;;;;6.13;2.80;;;8.50;99.90;;;;;;6191752;23;20216;-90
2022/05/17 13:47:24;;;;;;;7.23;3.07;;;8.50;99.90;;;;;;6191757;23;20177;-90
2022/05/17 13:49:58;;;;;;;6.03;2.57;;;8.60;99.90;;;;;;6191083;23;20525;-90
2022/05/17 13:52:34;;;;;;;5.90;2.70;;;8.60;99.90;;;;;;6191465;23;20177;-90
2022/05/17 13:55:13;;;;;;;6.37;2.83;;;8.50;99.90;;;;;;6191698;23;20505;-89
2022/05/17 13:57:50;;;;;;;6.93;2.73;;;8.70;99.90;;;;;;6191209;23;20224;-90
2022/05/17 14:00:28;;;;;;;8.77;3.10;;;8.70;99.90;;;;;;6192496;23;20165;-90
2022/05/17 14:03:01;;;;;;;8.43;2.57;;;8.60;99.90;;;;;;6144552;23;20208;-90
2022/05/17 14:05:34;;;;;;;10.67;3.00;;;8.60;99.90;;;;;;6207831;23;20216;-88
2022/05/17 14:14:00;;;;;;;7.30;2.00;;;8.70;99.90;;;;;;6199862;23;20319;-91
2022/05/17 14:16:34;;;;;;;6.00;2.53;;;8.70;99.90;;;;;;6208423;23;20251;-91
2022/05/17 14:19:06;;;;;;;9.50;2.53;;;8.80;99.90;;;;;;6210540;23;20181;-91